Cramme, Germany

12:42 PM CET on November 18, 2019 (GMT +0100)
INIEDERS144 | | Change Station

Elev 338 ft 52.10 °N, 10.43 °E | Updated 27 seconds ago

Rain
Rain
43 °F
Feels Like 43 °F
N
0
Wind Variable Wind from ESE
Gusts 0.0 mph

Today
High -- | Low -- °F
--% Chance of Precip.
Yesterday
High -- | Low -- °F
Precip. -- in
Pressure 29.68 in
Visibility 6.2 miles
Clouds Scattered Clouds 800 ft
Overcast 1000 ft
Windchill 43 °F
Dew Point 42 °F
Humidity 95%
Rainfall 0.00 in
Snow Depth Not available.
7:42 AM 4:23 PM
Waning Gibbous, 65% visible
METAR EDVE 181120Z 23006KT 190V250 9999 SCT008 OVC010 06/05 Q1005
Pressure 29.68 in
Visibility 6.2 miles
Clouds Scattered Clouds 800 ft
Overcast 1000 ft
Windchill 43 °F
Dew Point 42 °F
Humidity 95%
Rainfall 0.00 in
Snow Depth Not available.
7:42 AM 4:23 PM
Waning Gibbous, 65% visible
METAR EDVE 181120Z 23006KT 190V250 9999 SCT008 OVC010 06/05 Q1005

Get Severe Weather Alerts

Thanks for signing up!

Be on the lookout for a verification email in your inbox.

You'll start receiving the daily forecast at 6 AM.

×

10-Day Weather Forecast

×

Almanac

Astronomy

Nov. 18, 2019 Rise Set
Actual Time
Civil Twilight
Nautical Twilight
Astronomical Twilight
Moon
Length of Visible Light
Length of Day
Tomorrow will be .
, % of the Moon is Illuminated

Today's Extremes

Country Highs Country Lows

Community

WunderPhotos

Category 6

Welcome to Category 6. This is the collective home for Weather Underground's featured writeups by Dr. Jeff Masters (right), Bob Henson (left), Chris Burt, and other regular contributors.

Nearby

Air Quality

  Air Quality AQ Index Pollutant
Not available.

Snow Depth

Station Depth Elevation

Earthquake Activity

City Distance Mag. Time & Date
Minimum magnitude displayed is 2.5.

Coastal Water Temperatures

Place Temperature

Stations

Nearby Weather Stations

Station Location Temp. Windchill Dew Point Humidity Wind Precip. Elev Updated Type